Time;durP1;ratioP1;P1;durP2;ratioP2;P2;SDS_P1;SDS_P2;PMS_P1;PMS_P2;Temp;Humidity;BMP_temperature;BMP_pressure;BME280_temperature;BME280_humidity;BME280_pressure;Samples;Min_cycle;Max_cycle;Signal;HPM_P1;HPM_P2
2024/04/14 00:00:29;;;;;;;2.13;1.80;;;10.90;87.00;;;;;;2235362;26;20265;-73
2024/04/14 00:01:29;;;;;;;3.07;2.00;;;10.90;87.30;;;;;;2235522;26;20679;-73
2024/04/14 00:02:30;;;;;;;2.83;1.73;;;10.80;87.50;;;;;;2246969;26;20257;-72
2024/04/14 00:03:31;;;;;;;2.67;1.80;;;10.80;87.80;;;;;;2250120;26;20255;-73
2024/04/14 00:04:31;;;;;;;1.90;1.80;;;10.90;87.80;;;;;;2243614;26;20263;-73
2024/04/14 00:05:32;;;;;;;3.90;1.97;;;10.90;87.30;;;;;;2245383;26;20962;-73
2024/04/14 00:06:33;;;;;;;1.97;1.60;;;10.80;86.70;;;;;;2235720;26;20310;-73
2024/04/14 00:07:33;;;;;;;3.53;2.10;;;10.80;87.00;;;;;;2251695;26;20414;-73
2024/04/14 00:08:35;;;;;;;2.73;2.30;;;10.80;87.10;;;;;;2246672;26;20965;-73
2024/04/14 00:09:36;;;;;;;4.45;2.40;;;10.80;87.80;;;;;;2242646;26;20287;-73
2024/04/14 00:10:36;;;;;;;4.60;2.40;;;10.80;88.10;;;;;;2243877;26;20418;-73
2024/04/14 00:11:37;;;;;;;3.37;2.13;;;10.80;88.00;;;;;;2242842;26;20267;-73
2024/04/14 00:12:37;;;;;;;3.53;2.17;;;10.80;87.40;;;;;;2241621;26;20736;-73
2024/04/14 00:13:38;;;;;;;5.60;2.40;;;10.80;87.60;;;;;;2232372;26;20273;-73
2024/04/14 00:14:39;;;;;;;3.33;2.10;;;10.70;87.20;;;;;;2213802;26;20270;-74
2024/04/14 00:15:39;;;;;;;4.73;2.50;;;10.80;87.10;;;;;;2223345;26;20822;-73
2024/04/14 00:16:40;;;;;;;3.00;2.07;;;10.70;86.90;;;;;;2236467;26;20311;-73
2024/04/14 00:17:41;;;;;;;2.70;1.90;;;10.70;85.90;;;;;;2245561;26;20307;-73
2024/04/14 00:18:42;;;;;;;1.80;1.50;;;10.70;80.90;;;;;;2234404;26;20267;-73
2024/04/14 00:19:42;;;;;;;4.17;2.00;;;10.70;82.90;;;;;;2220960;26;20265;-73
2024/04/14 00:20:43;;;;;;;3.40;2.03;;;10.70;85.80;;;;;;2234913;26;20712;-73
2024/04/14 00:21:44;;;;;;;2.23;1.70;;;10.80;85.80;;;;;;2235559;26;20265;-73
2024/04/14 00:22:45;;;;;;;5.00;2.10;;;10.70;86.00;;;;;;2235789;26;20312;-73
2024/04/14 00:23:46;;;;;;;1.55;1.33;;;10.70;86.10;;;;;;2250153;26;20264;-73
2024/04/14 00:24:47;;;;;;;1.73;1.40;;;10.60;76.70;;;;;;2233462;26;20362;-73
2024/04/14 00:25:48;;;;;;;1.92;1.33;;;10.60;78.60;;;;;;2244086;26;20350;-73
2024/04/14 00:26:49;;;;;;;2.60;1.60;;;10.70;77.10;;;;;;2231922;26;20764;-73
2024/04/14 00:27:49;;;;;;;3.00;1.65;;;10.60;77.20;;;;;;2229199;26;20495;-73
2024/04/14 00:28:50;;;;;;;2.47;1.50;;;10.70;71.90;;;;;;2217841;26;20269;-73
2024/04/14 00:29:51;;;;;;;2.53;1.20;;;10.70;67.60;;;;;;2220710;26;20316;-73
2024/04/14 00:30:51;;;;;;;2.17;1.63;;;10.80;67.80;;;;;;2243847;26;20791;-73
2024/04/14 00:31:52;;;;;;;1.53;1.13;;;10.80;69.40;;;;;;2232736;26;20277;-73
2024/04/14 00:32:53;;;;;;;2.33;1.40;;;10.80;62.20;;;;;;2221217;26;20266;-73
2024/04/14 00:33:53;;;;;;;2.10;1.30;;;10.90;66.00;;;;;;2242677;26;20276;-73
2024/04/14 00:34:54;;;;;;;1.80;1.40;;;10.90;61.80;;;;;;2233684;26;20265;-73
2024/04/14 00:35:55;;;;;;;1.63;1.33;;;11.00;59.80;;;;;;2244934;26;20778;-73
2024/04/14 00:36:55;;;;;;;1.50;1.40;;;11.00;59.80;;;;;;2242576;26;20307;-73
2024/04/14 00:37:56;;;;;;;1.57;1.23;;;11.00;59.70;;;;;;2242896;26;20268;-73
2024/04/14 00:38:57;;;;;;;1.70;1.40;;;11.10;58.40;;;;;;2243910;26;20310;-73
2024/04/14 00:39:57;;;;;;;3.30;1.60;;;11.20;57.20;;;;;;2242803;26;20280;-73
2024/04/14 00:40:58;;;;;;;1.40;1.30;;;11.30;56.20;;;;;;2243386;26;20268;-73
2024/04/14 00:41:59;;;;;;;2.67;1.40;;;11.40;55.80;;;;;;2228170;26;20793;-73
2024/04/14 00:43:00;;;;;;;1.85;1.27;;;11.40;54.60;;;;;;2214114;26;20320;-73
2024/04/14 00:44:02;;;;;;;2.23;1.10;;;11.50;54.10;;;;;;2234970;26;21169;-71
2024/04/14 00:45:02;;;;;;;2.50;1.33;;;11.60;54.00;;;;;;2250187;26;20267;-72
2024/04/14 00:46:03;;;;;;;1.67;1.33;;;11.60;53.30;;;;;;2250697;26;20240;-73
2024/04/14 00:47:05;;;;;;;1.73;1.27;;;11.60;51.70;;;;;;2250295;26;20328;-74
2024/04/14 00:48:07;;;;;;;2.78;1.20;;;11.70;52.80;;;;;;2235613;26;20229;-74
2024/04/14 00:49:09;;;;;;;3.58;1.40;;;11.70;51.60;;;;;;2235353;26;20656;-73
2024/04/14 00:50:10;;;;;;;1.38;1.27;;;11.80;52.10;;;;;;2235797;26;20314;-73
2024/04/14 00:51:11;;;;;;;1.50;1.30;;;11.80;51.70;;;;;;2234974;26;20241;-73
2024/04/14 00:52:12;;;;;;;1.63;1.27;;;11.80;51.80;;;;;;2235579;26;20279;-73
2024/04/14 00:53:13;;;;;;;2.70;1.20;;;11.80;51.30;;;;;;2235458;26;20814;-73
2024/04/14 00:54:17;;;;;;;1.37;1.00;;;11.80;51.30;;;;;;2235519;26;20342;-73
2024/04/14 00:55:19;;;;;;;1.95;1.40;;;11.90;51.30;;;;;;2230658;26;20229;-73
2024/04/14 00:56:20;;;;;;;3.72;1.38;;;12.00;52.50;;;;;;2235353;26;20221;-73
2024/04/14 00:57:22;;;;;;;1.70;1.40;;;12.00;51.80;;;;;;2236643;26;20444;-73
2024/04/14 00:58:24;;;;;;;2.15;1.10;;;12.10;50.40;;;;;;2235843;26;20273;-73
2024/04/14 00:59:26;;;;;;;1.50;1.20;;;12.20;50.00;;;;;;2235499;26;20814;-73
2024/04/14 01:00:28;;;;;;;2.35;1.30;;;12.10;53.30;;;;;;2249625;26;20368;-73
2024/04/14 01:01:28;;;;;;;2.25;1.35;;;12.10;52.20;;;;;;2234014;26;20293;-73
2024/04/14 01:02:30;;;;;;;1.77;1.20;;;12.10;49.60;;;;;;2249467;26;20264;-73
2024/04/14 01:03:30;;;;;;;1.83;1.20;;;12.20;49.60;;;;;;2249557;26;20677;-73
2024/04/14 01:04:31;;;;;;;2.30;0.97;;;12.30;50.10;;;;;;2235894;26;20268;-74
2024/04/14 01:05:32;;;;;;;1.83;1.63;;;12.30;50.10;;;;;;2234576;26;20336;-73
2024/04/14 01:06:37;;;;;;;3.07;1.50;;;12.30;51.90;;;;;;2248882;26;20268;-73
2024/04/14 01:07:39;;;;;;;3.15;1.40;;;12.30;56.40;;;;;;2244192;26;20263;-73
2024/04/14 01:08:39;;;;;;;1.45;1.35;;;12.30;53.70;;;;;;2234707;26;20261;-74
2024/04/14 01:09:40;;;;;;;2.67;1.80;;;12.30;55.20;;;;;;2216386;26;20309;-73
2024/04/14 01:10:42;;;;;;;1.37;1.10;;;12.30;57.50;;;;;;2230530;26;20300;-73
2024/04/14 01:11:43;;;;;;;2.65;1.90;;;12.20;54.70;;;;;;2249777;26;20548;-74
2024/04/14 01:12:44;;;;;;;2.50;1.10;;;12.10;59.40;;;;;;2249149;26;20343;-73
2024/04/14 01:13:48;;;;;;;2.40;1.30;;;12.00;59.40;;;;;;2235052;26;20269;-73
2024/04/14 01:14:48;;;;;;;2.58;1.50;;;12.00;56.80;;;;;;2244225;26;20493;-73
2024/04/14 01:15:49;;;;;;;2.20;2.00;;;12.00;58.70;;;;;;2250230;26;20268;-73
2024/04/14 01:16:50;;;;;;;3.20;1.83;;;12.00;61.80;;;;;;2251395;26;20264;-73
2024/04/14 01:17:50;;;;;;;1.87;1.50;;;11.90;60.90;;;;;;2249231;26;20264;-73
2024/04/14 01:18:51;;;;;;;1.87;1.40;;;11.90;62.30;;;;;;2233831;26;20295;-74
2024/04/14 01:19:52;;;;;;;2.77;1.70;;;11.80;62.30;;;;;;2219525;26;20402;-73
2024/04/14 01:20:52;;;;;;;2.23;1.50;;;11.70;59.90;;;;;;2220551;26;20308;-73
2024/04/14 01:21:53;;;;;;;1.60;1.40;;;11.60;62.60;;;;;;2234935;26;20316;-73
2024/04/14 01:22:54;;;;;;;1.50;1.40;;;11.70;59.10;;;;;;2250650;26;20310;-73
2024/04/14 01:23:54;;;;;;;1.77;1.57;;;11.60;57.30;;;;;;2250753;26;20306;-73
2024/04/14 01:25:06;;;;;;;4.13;2.17;;;11.60;57.70;;;;;;2235802;26;20268;-73
2024/04/14 01:26:07;;;;;;;2.72;1.50;;;11.70;56.70;;;;;;2236221;26;20345;-73
2024/04/14 01:27:08;;;;;;;3.43;1.43;;;11.60;56.30;;;;;;2230776;26;20238;-73
2024/04/14 01:28:08;;;;;;;2.33;1.50;;;11.60;56.30;;;;;;2233869;26;20234;-73
2024/04/14 01:29:09;;;;;;;2.10;1.43;;;11.60;56.20;;;;;;2235834;26;20341;-73
2024/04/14 01:30:10;;;;;;;2.13;1.30;;;11.60;56.20;;;;;;2249018;26;20227;-73
2024/04/14 01:31:11;;;;;;;1.75;1.40;;;11.60;56.60;;;;;;2250426;26;20271;-73
2024/04/14 01:32:12;;;;;;;2.43;1.57;;;11.60;56.70;;;;;;2250604;26;20741;-73
2024/04/14 01:33:12;;;;;;;2.20;1.47;;;11.60;57.10;;;;;;2237769;26;20233;-73
2024/04/14 01:34:17;;;;;;;5.53;1.80;;;11.60;57.10;;;;;;2251797;26;20282;-73
2024/04/14 01:35:17;;;;;;;4.80;1.25;;;11.60;57.60;;;;;;2236654;26;20838;-74
2024/04/14 01:36:18;;;;;;;3.60;1.40;;;11.80;57.30;;;;;;2222872;26;20238;-73
2024/04/14 01:37:19;;;;;;;4.10;1.50;;;11.70;57.00;;;;;;2237296;26;20221;-73
2024/04/14 01:38:19;;;;;;;1.77;1.40;;;11.70;57.20;;;;;;2235280;26;20716;-74
2024/04/14 01:39:20;;;;;;;2.33;1.27;;;11.80;57.10;;;;;;2222258;26;20230;-71
2024/04/14 01:40:21;;;;;;;2.30;1.30;;;11.80;56.90;;;;;;2236945;26;20281;-72
2024/04/14 01:41:21;;;;;;;3.67;1.40;;;11.80;57.20;;;;;;2250625;26;20423;-71
2024/04/14 01:42:23;;;;;;;2.10;1.30;;;11.70;57.20;;;;;;2250972;26;20635;-71
2024/04/14 01:43:23;;;;;;;2.92;1.63;;;11.80;57.10;;;;;;2235446;26;20667;-71
2024/04/14 01:44:24;;;;;;;1.73;1.23;;;11.80;57.10;;;;;;2250755;26;20267;-71
2024/04/14 01:45:25;;;;;;;2.53;1.40;;;11.80;57.20;;;;;;2221079;26;20704;-71
2024/04/14 01:46:25;;;;;;;1.50;1.23;;;11.80;57.70;;;;;;2216274;26;20267;-71
2024/04/14 01:47:26;;;;;;;2.17;1.17;;;11.90;57.80;;;;;;2236169;26;20264;-70
2024/04/14 01:48:27;;;;;;;1.97;1.20;;;11.80;58.00;;;;;;2229473;26;20754;-70
2024/04/14 01:49:28;;;;;;;3.47;1.08;;;11.90;57.70;;;;;;2220620;26;20678;-71
2024/04/14 01:50:28;;;;;;;1.30;1.20;;;11.90;57.50;;;;;;2228873;26;20292;-70
2024/04/14 01:51:29;;;;;;;1.73;1.37;;;12.00;57.50;;;;;;2236274;26;20640;-71
2024/04/14 01:52:30;;;;;;;3.67;1.23;;;12.00;57.50;;;;;;2235970;26;20277;-72
2024/04/14 01:53:30;;;;;;;1.40;1.30;;;12.00;57.20;;;;;;2237083;26;20269;-70
2024/04/14 01:54:31;;;;;;;2.30;1.13;;;12.10;57.30;;;;;;2243140;26;20362;-70
2024/04/14 01:55:32;;;;;;;1.20;1.10;;;12.20;57.30;;;;;;2257940;26;20339;-71
2024/04/14 01:56:32;;;;;;;3.60;1.40;;;12.20;57.40;;;;;;2248051;26;20695;-71
2024/04/14 01:57:34;;;;;;;1.77;1.00;;;12.20;57.40;;;;;;2243182;26;20310;-71
2024/04/14 01:58:34;;;;;;;1.30;1.05;;;12.30;57.40;;;;;;2242900;26;20386;-70
2024/04/14 01:59:37;;;;;;;1.43;1.10;;;12.30;57.20;;;;;;2216816;26;20277;-71
2024/04/14 02:00:37;;;;;;;1.23;1.05;;;12.30;57.70;;;;;;2220816;26;20285;-70
2024/04/14 02:01:38;;;;;;;1.87;1.10;;;12.40;57.00;;;;;;2235842;26;20273;-71
2024/04/14 02:02:39;;;;;;;1.43;1.03;;;12.50;57.80;;;;;;2250186;26;20787;-71
2024/04/14 02:03:41;;;;;;;1.90;1.20;;;12.50;56.70;;;;;;2220912;26;20348;-71
2024/04/14 02:04:42;;;;;;;1.85;0.95;;;12.60;56.60;;;;;;2235928;26;20331;-72
2024/04/14 02:05:43;;;;;;;1.13;1.00;;;12.70;56.20;;;;;;2251237;26;20272;-71
2024/04/14 02:06:43;;;;;;;3.43;1.43;;;12.80;56.00;;;;;;2242434;26;20335;-71
2024/04/14 02:07:44;;;;;;;2.33;1.20;;;12.80;56.50;;;;;;2252073;26;20315;-71
2024/04/14 02:08:45;;;;;;;2.73;1.77;;;12.80;56.50;;;;;;2251007;26;20352;-71
2024/04/14 02:09:46;;;;;;;1.20;1.00;;;12.80;56.30;;;;;;2250896;26;20264;-71
2024/04/14 02:10:47;;;;;;;0.93;0.90;;;12.80;56.20;;;;;;2250851;26;20369;-71
2024/04/14 02:11:47;;;;;;;1.17;1.00;;;12.90;56.10;;;;;;2250080;26;20666;-71
2024/04/14 02:12:48;;;;;;;1.13;1.00;;;12.90;56.00;;;;;;2251177;26;20372;-72
2024/04/14 02:13:49;;;;;;;2.50;1.20;;;13.00;55.90;;;;;;2244009;26;20311;-70
2024/04/14 02:14:50;;;;;;;2.00;1.10;;;13.00;55.60;;;;;;2231968;26;20268;-71
2024/04/14 02:15:51;;;;;;;2.85;1.20;;;13.10;55.30;;;;;;2235707;26;20261;-71
2024/04/14 02:16:51;;;;;;;2.87;1.20;;;13.10;55.10;;;;;;2217308;26;20270;-71
2024/04/14 02:17:52;;;;;;;1.20;1.10;;;13.20;55.00;;;;;;2231939;26;20604;-71
2024/04/14 02:18:53;;;;;;;0.93;0.90;;;13.20;55.30;;;;;;2235020;26;20319;-70
2024/04/14 02:19:53;;;;;;;0.80;0.80;;;13.10;55.30;;;;;;2236018;26;20290;-71
2024/04/14 02:20:54;;;;;;;1.20;1.00;;;13.20;55.40;;;;;;2235467;26;20307;-71
2024/04/14 02:21:55;;;;;;;2.00;1.00;;;13.10;55.70;;;;;;2250361;26;20315;-70
2024/04/14 02:22:56;;;;;;;1.80;0.90;;;13.20;55.60;;;;;;2236223;26;20828;-71
2024/04/14 02:23:56;;;;;;;2.07;1.13;;;13.20;55.60;;;;;;2222458;26;20325;-71
2024/04/14 02:24:57;;;;;;;1.23;1.13;;;13.20;55.70;;;;;;2236895;26;20261;-70
2024/04/14 02:25:59;;;;;;;1.90;1.00;;;13.30;55.50;;;;;;2244766;26;20268;-71
2024/04/14 02:27:00;;;;;;;1.27;1.00;;;13.30;55.70;;;;;;2246348;26;20268;-71
2024/04/14 02:28:01;;;;;;;1.45;1.15;;;13.20;55.70;;;;;;2251597;26;20378;-72
2024/04/14 02:29:01;;;;;;;1.83;1.20;;;13.30;55.90;;;;;;2249241;26;20248;-70
2024/04/14 02:30:02;;;;;;;2.53;1.10;;;13.30;55.70;;;;;;2250637;26;20237;-70
2024/04/14 02:31:03;;;;;;;1.53;1.00;;;13.30;56.10;;;;;;2249197;26;20244;-70
2024/04/14 02:32:04;;;;;;;2.03;1.20;;;13.30;55.90;;;;;;2247225;26;20549;-71
2024/04/14 02:33:05;;;;;;;1.75;1.17;;;13.20;55.80;;;;;;2250588;26;20232;-71
2024/04/14 02:34:05;;;;;;;1.47;1.20;;;13.30;56.00;;;;;;2249037;26;20620;-72
2024/04/14 02:35:06;;;;;;;1.13;0.90;;;13.30;55.70;;;;;;2233906;26;20217;-70
2024/04/14 02:36:07;;;;;;;1.83;1.10;;;13.30;56.00;;;;;;2218790;26;20238;-71
2024/04/14 02:37:08;;;;;;;1.73;1.10;;;13.40;55.70;;;;;;2219998;26;20250;-71
2024/04/14 02:38:08;;;;;;;2.33;1.00;;;13.30;55.70;;;;;;2234166;26;20241;-71
2024/04/14 02:39:09;;;;;;;1.40;1.07;;;13.40;55.40;;;;;;2248810;26;20236;-71
2024/04/14 02:40:11;;;;;;;1.00;1.00;;;13.50;55.10;;;;;;2248886;26;20228;-71
2024/04/14 02:41:11;;;;;;;1.65;1.08;;;13.40;55.00;;;;;;2233790;26;20233;-71
2024/04/14 02:42:12;;;;;;;1.27;0.90;;;13.40;55.10;;;;;;2247822;26;20613;-72
2024/04/14 02:43:13;;;;;;;2.80;1.20;;;13.40;54.90;;;;;;2252673;26;20232;-71
2024/04/14 02:44:14;;;;;;;1.77;1.10;;;13.40;54.90;;;;;;2252844;26;20233;-72
2024/04/14 02:45:15;;;;;;;2.07;1.30;;;13.40;54.50;;;;;;2250048;26;20613;-71
2024/04/14 02:46:15;;;;;;;1.27;1.10;;;13.40;54.40;;;;;;2234221;26;20293;-70
2024/04/14 02:47:16;;;;;;;1.53;1.10;;;13.50;54.90;;;;;;2234741;26;20233;-71
2024/04/14 02:48:18;;;;;;;1.10;1.00;;;13.40;55.10;;;;;;2234806;26;20233;-71
2024/04/14 02:49:19;;;;;;;2.70;1.20;;;13.40;54.60;;;;;;2231291;26;20229;-71
2024/04/14 02:50:19;;;;;;;1.95;1.02;;;13.40;54.50;;;;;;2236314;26;20237;-71
2024/04/14 02:51:20;;;;;;;2.53;1.40;;;13.40;54.40;;;;;;2243072;26;20943;-71
2024/04/14 02:52:21;;;;;;;2.20;1.20;;;13.40;54.40;;;;;;2248472;26;20268;-71
2024/04/14 02:53:28;;;;;;;1.10;1.00;;;13.40;54.70;;;;;;2233068;26;20333;-71
2024/04/14 02:54:29;;;;;;;1.58;1.17;;;13.40;54.80;;;;;;2235801;26;20369;-72
2024/04/14 02:55:30;;;;;;;1.03;0.90;;;13.50;54.80;;;;;;2227318;26;20891;-70
2024/04/14 02:56:30;;;;;;;1.10;1.00;;;13.50;54.50;;;;;;2225995;26;20261;-71
2024/04/14 02:57:31;;;;;;;1.13;0.93;;;13.40;54.40;;;;;;2227160;26;20490;-71
2024/04/14 02:58:32;;;;;;;1.10;0.90;;;13.40;55.20;;;;;;2208425;26;20370;-70
2024/04/14 02:59:37;;;;;;;1.20;1.10;;;13.40;54.60;;;;;;2220523;26;20803;-72
2024/04/14 03:00:37;;;;;;;2.50;1.20;;;13.50;54.30;;;;;;2248151;26;20570;-70
2024/04/14 03:01:38;;;;;;;2.60;1.00;;;13.50;54.00;;;;;;2245186;26;20275;-71
2024/04/14 03:02:39;;;;;;;2.03;1.30;;;13.50;53.90;;;;;;2219789;26;20375;-71
2024/04/14 03:03:40;;;;;;;1.50;0.90;;;13.40;54.20;;;;;;2213286;26;20266;-72
2024/04/14 03:04:41;;;;;;;1.33;0.90;;;13.40;54.50;;;;;;2226949;26;20391;-71
2024/04/14 03:05:41;;;;;;;1.73;0.90;;;13.50;54.20;;;;;;2227545;26;20312;-72
2024/04/14 03:06:42;;;;;;;1.20;1.00;;;13.60;54.20;;;;;;2238809;26;20320;-72
2024/04/14 03:07:43;;;;;;;2.73;1.30;;;13.50;53.80;;;;;;2242714;26;20265;-72
2024/04/14 03:08:44;;;;;;;1.45;0.93;;;13.50;53.90;;;;;;2242070;26;20269;-71
2024/04/14 03:09:44;;;;;;;1.73;1.00;;;13.60;54.30;;;;;;2241702;26;20303;-71
2024/04/14 03:10:54;;;;;;;2.77;1.10;;;13.60;53.90;;;;;;2249328;26;20271;-72
2024/04/14 03:11:54;;;;;;;1.30;0.95;;;13.50;54.10;;;;;;2241664;26;20268;-71
2024/04/14 03:12:55;;;;;;;1.13;1.00;;;13.50;53.90;;;;;;2236561;26;20311;-72
2024/04/14 03:13:56;;;;;;;0.90;0.83;;;13.50;53.90;;;;;;2233938;26;20733;-71
2024/04/14 03:14:56;;;;;;;1.63;1.30;;;13.50;53.90;;;;;;2221061;26;20327;-71
2024/04/14 03:16:01;;;;;;;1.73;1.20;;;13.50;54.00;;;;;;2236900;26;20265;-72
2024/04/14 03:17:01;;;;;;;1.23;1.13;;;13.50;54.00;;;;;;2256077;26;20849;-71
2024/04/14 03:18:02;;;;;;;1.50;1.20;;;13.50;54.60;;;;;;2243519;26;20329;-70
2024/04/14 03:19:03;;;;;;;1.77;1.10;;;13.50;54.20;;;;;;2241416;26;20278;-70
2024/04/14 03:20:05;;;;;;;1.90;1.23;;;13.60;54.30;;;;;;2228331;26;20764;-72
2024/04/14 03:21:06;;;;;;;1.30;1.20;;;13.40;54.40;;;;;;2250022;26;20325;-68
2024/04/14 03:22:07;;;;;;;2.28;1.23;;;13.40;55.00;;;;;;2250811;26;20224;-72
2024/04/14 03:23:08;;;;;;;1.53;1.10;;;13.40;55.00;;;;;;2247071;26;20228;-72
2024/04/14 03:24:08;;;;;;;2.50;1.00;;;13.30;55.20;;;;;;2234567;26;20237;-72
2024/04/14 03:25:09;;;;;;;1.20;1.10;;;13.20;55.00;;;;;;2235367;26;20319;-71
2024/04/14 03:26:10;;;;;;;1.47;1.00;;;13.20;55.30;;;;;;2218786;26;20583;-70
2024/04/14 03:27:11;;;;;;;1.27;1.10;;;13.20;55.20;;;;;;2233052;26;20462;-72
2024/04/14 03:28:12;;;;;;;2.25;1.10;;;13.20;55.40;;;;;;2232962;26;20314;-71
2024/04/14 03:29:12;;;;;;;1.63;1.00;;;13.10;55.50;;;;;;2249288;26;20236;-71
2024/04/14 03:30:13;;;;;;;1.07;0.87;;;13.20;55.50;;;;;;2249664;26;20382;-71
2024/04/14 03:31:14;;;;;;;0.97;0.90;;;13.10;55.60;;;;;;2249178;26;20228;-71
2024/04/14 03:32:15;;;;;;;2.93;1.20;;;13.10;55.60;;;;;;2249462;26;20289;-71
2024/04/14 03:33:16;;;;;;;2.20;1.10;;;13.00;55.80;;;;;;2229554;26;20233;-70
2024/04/14 03:34:17;;;;;;;1.13;1.00;;;13.10;55.90;;;;;;2242608;26;20240;-71
2024/04/14 03:35:17;;;;;;;3.00;1.00;;;13.10;55.70;;;;;;2249558;26;20309;-71
2024/04/14 03:36:18;;;;;;;0.80;0.80;;;13.10;55.50;;;;;;2219603;26;20334;-71
2024/04/14 03:37:19;;;;;;;1.80;1.20;;;13.10;55.70;;;;;;2235082;26;20220;-70
2024/04/14 03:38:19;;;;;;;3.13;1.30;;;13.10;55.90;;;;;;2249716;26;20669;-72
2024/04/14 03:39:20;;;;;;;2.40;1.33;;;13.10;55.90;;;;;;2251365;26;20228;-71
2024/04/14 03:40:21;;;;;;;1.63;1.10;;;13.00;56.70;;;;;;2249018;26;20349;-71
2024/04/14 03:41:24;;;;;;;3.88;1.35;;;13.00;57.00;;;;;;2220231;26;20268;-71
2024/04/14 03:42:24;;;;;;;1.10;1.00;;;13.10;57.60;;;;;;2221679;26;20282;-71
2024/04/14 03:43:25;;;;;;;1.40;1.30;;;12.90;57.60;;;;;;2249897;26;20264;-70
2024/04/14 03:44:30;;;;;;;1.20;1.10;;;12.90;59.50;;;;;;2265123;26;20305;-71
2024/04/14 03:45:32;;;;;;;1.83;1.50;;;12.70;59.20;;;;;;2249596;26;20267;-71
2024/04/14 03:46:33;;;;;;;2.13;1.30;;;12.70;59.20;;;;;;2249132;26;20263;-71
2024/04/14 03:47:34;;;;;;;3.33;1.50;;;12.50;60.00;;;;;;2250749;26;20264;-72
2024/04/14 03:48:35;;;;;;;1.65;1.30;;;12.50;59.90;;;;;;2249359;26;20638;-71
2024/04/14 03:49:36;;;;;;;1.27;1.10;;;12.50;60.60;;;;;;2234833;26;20308;-72
2024/04/14 03:50:36;;;;;;;1.53;1.20;;;12.40;60.60;;;;;;2234421;26;20303;-70
2024/04/14 03:51:37;;;;;;;2.20;1.23;;;12.40;61.10;;;;;;2233686;26;20265;-71
2024/04/14 03:52:38;;;;;;;1.73;1.47;;;12.30;62.50;;;;;;2234716;26;20611;-71
2024/04/14 03:53:40;;;;;;;2.60;1.43;;;12.20;62.80;;;;;;2249928;26;20279;-70
2024/04/14 03:54:41;;;;;;;2.92;1.20;;;12.20;62.90;;;;;;2250586;26;20268;-71
2024/04/14 03:55:41;;;;;;;1.70;1.00;;;12.20;62.50;;;;;;2234223;26;20330;-71
2024/04/14 03:56:42;;;;;;;2.50;1.37;;;12.10;62.50;;;;;;2234023;26;20260;-71
2024/04/14 03:57:43;;;;;;;2.17;1.13;;;12.10;63.10;;;;;;2234789;26;20804;-71
2024/04/14 03:58:43;;;;;;;1.23;1.00;;;12.10;63.40;;;;;;2250938;26;20333;-71
2024/04/14 03:59:48;;;;;;;3.77;1.30;;;12.10;63.20;;;;;;2249687;26;20263;-71
2024/04/14 04:00:49;;;;;;;2.13;1.10;;;12.10;63.20;;;;;;2251207;26;20264;-72
2024/04/14 04:01:50;;;;;;;1.33;1.00;;;12.10;62.90;;;;;;2246760;26;20314;-72
2024/04/14 04:02:50;;;;;;;1.57;1.00;;;12.10;63.00;;;;;;2236799;26;20347;-72
2024/04/14 04:03:52;;;;;;;1.43;1.00;;;12.20;62.90;;;;;;2248356;26;20734;-71
2024/04/14 04:04:52;;;;;;;3.45;1.38;;;12.20;63.00;;;;;;2250170;26;20770;-71
2024/04/14 04:05:54;;;;;;;3.03;1.03;;;12.20;63.00;;;;;;2234892;26;20311;-71
2024/04/14 04:06:55;;;;;;;1.40;1.20;;;12.30;63.10;;;;;;2220016;26;20278;-71
2024/04/14 04:07:56;;;;;;;1.73;1.30;;;12.30;62.90;;;;;;2218146;26;20731;-71
2024/04/14 04:08:56;;;;;;;1.53;1.13;;;12.30;62.90;;;;;;2229660;26;20268;-71
2024/04/14 04:09:57;;;;;;;2.63;1.43;;;12.30;63.00;;;;;;2230153;26;20276;-71
2024/04/14 04:11:03;;;;;;;3.70;1.30;;;12.30;63.00;;;;;;2235454;26;20260;-71
2024/04/14 04:12:04;;;;;;;1.60;1.17;;;12.30;63.10;;;;;;2235056;26;20309;-70
2024/04/14 04:13:05;;;;;;;1.98;1.40;;;12.30;63.50;;;;;;2230624;26;20241;-71
2024/04/14 04:14:06;;;;;;;2.03;1.37;;;12.20;63.40;;;;;;2241669;26;20298;-68
2024/04/14 04:15:06;;;;;;;1.40;1.10;;;12.30;63.30;;;;;;2242878;26;20691;-71
2024/04/14 04:16:07;;;;;;;1.57;1.20;;;12.20;63.60;;;;;;2243839;26;20279;-72
2024/04/14 04:17:08;;;;;;;1.97;1.20;;;12.20;63.80;;;;;;2243746;26;20234;-71
2024/04/14 04:18:09;;;;;;;2.30;1.10;;;12.30;63.80;;;;;;2249380;26;20344;-71
2024/04/14 04:19:10;;;;;;;1.63;1.00;;;12.30;64.10;;;;;;2264302;26;20239;-71
2024/04/14 04:20:11;;;;;;;1.10;1.00;;;12.30;64.20;;;;;;2249868;26;20236;-70
2024/04/14 04:21:11;;;;;;;2.23;1.20;;;12.30;65.50;;;;;;2249059;26;20229;-71
2024/04/14 04:22:12;;;;;;;1.43;1.00;;;12.30;64.60;;;;;;2249506;26;20287;-72
2024/04/14 04:23:13;;;;;;;1.33;1.10;;;12.40;64.50;;;;;;2250329;26;20571;-71
2024/04/14 04:24:14;;;;;;;1.23;1.03;;;12.40;64.60;;;;;;2248906;26;20228;-71
2024/04/14 04:25:14;;;;;;;2.03;1.10;;;12.30;65.20;;;;;;2247923;26;20240;-72
2024/04/14 04:26:15;;;;;;;1.83;1.40;;;12.40;65.10;;;;;;2264995;26;20231;-71
2024/04/14 04:27:17;;;;;;;1.37;1.20;;;12.40;64.80;;;;;;2250281;26;20756;-72
2024/04/14 04:28:17;;;;;;;2.38;1.38;;;12.30;64.90;;;;;;2221488;26;20337;-71
2024/04/14 04:29:18;;;;;;;2.37;1.10;;;12.30;65.30;;;;;;2218903;26;20254;-71
2024/04/14 04:30:19;;;;;;;1.30;1.10;;;12.30;65.50;;;;;;2234011;26;20229;-71
2024/04/14 04:31:19;;;;;;;2.97;1.20;;;12.40;65.50;;;;;;2234985;26;20237;-69
2024/04/14 04:32:21;;;;;;;1.83;1.10;;;12.30;65.50;;;;;;2243766;26;20225;-72
2024/04/14 04:33:23;;;;;;;3.75;1.65;;;12.30;65.50;;;;;;2234491;26;20377;-71
2024/04/14 04:34:25;;;;;;;1.48;1.13;;;12.30;66.30;;;;;;2234244;26;20351;-70
2024/04/14 04:35:25;;;;;;;1.75;1.20;;;12.30;66.10;;;;;;2247305;26;20271;-71
2024/04/14 04:36:26;;;;;;;2.70;1.10;;;12.20;66.30;;;;;;2234304;26;20265;-71
2024/04/14 04:37:27;;;;;;;1.63;0.90;;;12.20;66.30;;;;;;2234166;26;20888;-72
2024/04/14 04:38:27;;;;;;;3.07;1.00;;;12.20;66.80;;;;;;2236117;26;20273;-70
2024/04/14 04:39:28;;;;;;;1.23;1.00;;;12.20;66.90;;;;;;2219390;26;20300;-72
2024/04/14 04:40:29;;;;;;;1.50;1.07;;;12.30;67.00;;;;;;2235716;26;20277;-71
2024/04/14 04:41:30;;;;;;;3.37;1.20;;;12.20;67.10;;;;;;2248488;26;20752;-70
2024/04/14 04:42:32;;;;;;;2.13;1.05;;;12.20;67.30;;;;;;2236092;26;21026;-71
2024/04/14 04:43:32;;;;;;;2.08;1.13;;;12.30;67.40;;;;;;2234458;26;20807;-71
2024/04/14 04:44:33;;;;;;;1.20;0.93;;;12.20;67.60;;;;;;2251354;26;20268;-71
2024/04/14 04:45:34;;;;;;;1.63;1.20;;;12.20;67.60;;;;;;2250939;26;20736;-71
2024/04/14 04:46:35;;;;;;;1.80;1.30;;;12.30;67.50;;;;;;2248701;26;20271;-71
2024/04/14 04:47:36;;;;;;;3.17;1.25;;;12.30;67.10;;;;;;2220393;26;20265;-71
2024/04/14 04:48:38;;;;;;;1.20;1.10;;;12.30;67.40;;;;;;2219972;26;20443;-71
2024/04/14 04:49:39;;;;;;;2.13;1.00;;;12.30;67.50;;;;;;2235349;26;20376;-71
2024/04/14 04:50:39;;;;;;;1.47;1.00;;;12.40;67.80;;;;;;2233495;26;20354;-70
2024/04/14 04:51:40;;;;;;;1.53;1.00;;;12.30;68.30;;;;;;2248514;26;20314;-72
2024/04/14 04:52:40;;;;;;;1.30;1.10;;;12.30;68.80;;;;;;2249146;26;20268;-71
2024/04/14 04:53:41;;;;;;;1.20;1.00;;;12.30;69.00;;;;;;2234469;26;20269;-71
2024/04/14 04:54:42;;;;;;;1.00;0.90;;;12.40;69.20;;;;;;2234824;26;20281;-71
2024/04/14 04:55:46;;;;;;;2.60;1.23;;;12.30;70.00;;;;;;2250323;26;20267;-72
2024/04/14 04:56:47;;;;;;;1.80;1.42;;;12.20;70.80;;;;;;2250882;26;20268;-71
2024/04/14 04:57:48;;;;;;;3.20;1.50;;;12.20;70.60;;;;;;2236312;26;20402;-71
2024/04/14 04:58:48;;;;;;;1.40;1.07;;;12.30;69.80;;;;;;2249644;26;20731;-72
2024/04/14 04:59:49;;;;;;;2.03;1.00;;;12.20;69.60;;;;;;2236110;26;20261;-72
2024/04/14 05:00:52;;;;;;;1.80;1.40;;;12.30;69.60;;;;;;2235395;26;20312;-71
2024/04/14 05:01:52;;;;;;;2.25;1.25;;;12.30;69.60;;;;;;2233551;26;20788;-71
2024/04/14 05:02:53;;;;;;;2.97;1.50;;;12.20;69.70;;;;;;2233404;26;20265;-72
2024/04/14 05:03:54;;;;;;;3.20;1.60;;;12.20;70.00;;;;;;2236258;26;20264;-72
2024/04/14 05:04:54;;;;;;;2.90;1.30;;;12.20;71.10;;;;;;2251034;26;20629;-71
2024/04/14 05:06:02;;;;;;;1.87;1.40;;;12.20;71.10;;;;;;2252198;26;20318;-72
2024/04/14 05:07:03;;;;;;;1.35;1.25;;;12.10;72.00;;;;;;2249120;26;20814;-71
2024/04/14 05:08:05;;;;;;;1.97;1.30;;;12.10;71.70;;;;;;2250195;26;20236;-70
2024/04/14 05:09:05;;;;;;;2.10;1.30;;;12.10;72.10;;;;;;2250013;26;20240;-71
2024/04/14 05:10:06;;;;;;;1.73;1.40;;;12.10;72.70;;;;;;2250173;26;20270;-71
2024/04/14 05:11:07;;;;;;;2.00;1.13;;;12.10;72.70;;;;;;2251134;26;20278;-71
2024/04/14 05:12:08;;;;;;;2.27;1.33;;;12.00;72.80;;;;;;2235422;26;20522;-70
2024/04/14 05:13:08;;;;;;;1.37;1.27;;;12.00;74.00;;;;;;2235339;26;20311;-72
2024/04/14 05:14:09;;;;;;;2.27;1.10;;;11.90;74.70;;;;;;2234861;26;20283;-71
2024/04/14 05:15:10;;;;;;;2.23;1.13;;;11.90;76.60;;;;;;2251503;26;20341;-70
2024/04/14 05:16:12;;;;;;;2.57;1.63;;;11.90;77.10;;;;;;2249912;26;20279;-72
2024/04/14 05:17:13;;;;;;;1.45;1.23;;;11.90;76.60;;;;;;2250813;26;20597;-71
2024/04/14 05:18:14;;;;;;;1.90;1.50;;;11.80;77.40;;;;;;2251172;26;20232;-71